sensor_id;sensor_type;location;lat;lon;timestamp;pressure;altitude;pressure_sealevel;temperature;humidity
61571;BME280;47463;49.884;10.010;2022-09-16T00:00:01;101265;;;12.9;76
61571;BME280;47463;49.884;10.010;2022-09-16T00:05:01;101257;;;12.9;76
61571;BME280;47463;49.884;10.010;2022-09-16T00:10:01;101255;;;12.9;76
61571;BME280;47463;49.884;10.010;2022-09-16T00:15:01;101249;;;13;75
61571;BME280;47463;49.884;10.010;2022-09-16T00:20:01;101256;;;13;75
61571;BME280;47463;49.884;10.010;2022-09-16T00:25:01;101254;;;13;75
61571;BME280;47463;49.884;10.010;2022-09-16T00:30:01;101252;;;13;75
61571;BME280;47463;49.884;10.010;2022-09-16T00:35:01;101253;;;13;75
61571;BME280;47463;49.884;10.010;2022-09-16T00:40:01;101250;;;12.9;75
61571;BME280;47463;49.884;10.010;2022-09-16T00:45:01;101244;;;12.9;75
61571;BME280;47463;49.884;10.010;2022-09-16T00:50:03;101245;;;12.9;75
61571;BME280;47463;49.884;10.010;2022-09-16T00:55:02;101243;;;12.9;75
61571;BME280;47463;49.884;10.010;2022-09-16T01:00:01;101246;;;12.9;75
61571;BME280;47463;49.884;10.010;2022-09-16T01:05:02;101238;;;12.8;75
61571;BME280;47463;49.884;10.010;2022-09-16T01:10:01;101235;;;12.8;75
61571;BME280;47463;49.884;10.010;2022-09-16T01:15:01;101234;;;12.8;75
61571;BME280;47463;49.884;10.010;2022-09-16T01:20:07;101237;;;12.7;76
61571;BME280;47463;49.884;10.010;2022-09-16T01:25:04;101239;;;12.7;76
61571;BME280;47463;49.884;10.010;2022-09-16T01:30:05;101241;;;12.8;75
61571;BME280;47463;49.884;10.010;2022-09-16T01:35:02;101243;;;12.8;75
61571;BME280;47463;49.884;10.010;2022-09-16T01:40:02;101247;;;12.8;75
61571;BME280;47463;49.884;10.010;2022-09-16T01:45:03;101253;;;12.8;75
61571;BME280;47463;49.884;10.010;2022-09-16T01:50:02;101260;;;12.7;77
61571;BME280;47463;49.884;10.010;2022-09-16T01:55:01;101264;;;12.6;77
61571;BME280;47463;49.884;10.010;2022-09-16T02:00:02;101258;;;12.5;78
61571;BME280;47463;49.884;10.010;2022-09-16T02:05:02;101255;;;12.5;78
61571;BME280;47463;49.884;10.010;2022-09-16T02:10:03;101251;;;12.5;78
61571;BME280;47463;49.884;10.010;2022-09-16T02:15:01;101254;;;12.5;78
61571;BME280;47463;49.884;10.010;2022-09-16T02:20:02;101264;;;12.5;78
61571;BME280;47463;49.884;10.010;2022-09-16T02:25:01;101269;;;12.5;78
61571;BME280;47463;49.884;10.010;2022-09-16T02:30:03;101271;;;12.5;78
61571;BME280;47463;49.884;10.010;2022-09-16T02:35:01;101268;;;12.4;78
61571;BME280;47463;49.884;10.010;2022-09-16T02:40:03;101263;;;12.4;78
61571;BME280;47463;49.884;10.010;2022-09-16T02:45:01;101265;;;12.4;77
61571;BME280;47463;49.884;10.010;2022-09-16T02:50:03;101268;;;12.4;77
61571;BME280;47463;49.884;10.010;2022-09-16T02:55:03;101257;;;12.3;77
61571;BME280;47463;49.884;10.010;2022-09-16T03:00:01;101260;;;12.3;77
61571;BME280;47463;49.884;10.010;2022-09-16T03:05:01;101264;;;12.3;77
61571;BME280;47463;49.884;10.010;2022-09-16T03:10:01;101274;;;12.3;77
61571;BME280;47463;49.884;10.010;2022-09-16T03:15:03;101273;;;12.3;78
61571;BME280;47463;49.884;10.010;2022-09-16T03:20:02;101271;;;12.3;78
61571;BME280;47463;49.884;10.010;2022-09-16T03:25:02;101264;;;12.3;77
61571;BME280;47463;49.884;10.010;2022-09-16T03:30:02;101254;;;12.4;76
61571;BME280;47463;49.884;10.010;2022-09-16T03:35:01;101256;;;12.3;76
61571;BME280;47463;49.884;10.010;2022-09-16T03:40:02;101248;;;12.3;76
61571;BME280;47463;49.884;10.010;2022-09-16T03:45:01;101247;;;12.3;77
61571;BME280;47463;49.884;10.010;2022-09-16T03:50:01;101244;;;12.2;77
61571;BME280;47463;49.884;10.010;2022-09-16T03:55:01;101243;;;12.2;77
61571;BME280;47463;49.884;10.010;2022-09-16T04:00:01;101238;;;12.2;77
61571;BME280;47463;49.884;10.010;2022-09-16T04:05:01;101242;;;12.1;77
61571;BME280;47463;49.884;10.010;2022-09-16T04:10:01;101238;;;12.1;78
61571;BME280;47463;49.884;10.010;2022-09-16T04:15:01;101245;;;12;78
61571;BME280;47463;49.884;10.010;2022-09-16T04:20:01;101254;;;11.9;78
61571;BME280;47463;49.884;10.010;2022-09-16T04:25:01;101247;;;11.9;78
61571;BME280;47463;49.884;10.010;2022-09-16T04:30:01;101255;;;11.9;79
61571;BME280;47463;49.884;10.010;2022-09-16T04:35:01;101267;;;11.9;78
61571;BME280;47463;49.884;10.010;2022-09-16T04:40:01;101270;;;11.9;78
61571;BME280;47463;49.884;10.010;2022-09-16T04:45:01;101269;;;11.9;78
61571;BME280;47463;49.884;10.010;2022-09-16T04:50:01;101289;;;11.9;78
61571;BME280;47463;49.884;10.010;2022-09-16T04:55:01;101293;;;11.9;78
61571;BME280;47463;49.884;10.010;2022-09-16T05:00:01;101293;;;11.9;78
61571;BME280;47463;49.884;10.010;2022-09-16T05:05:01;101294;;;11.9;78
61571;BME280;47463;49.884;10.010;2022-09-16T05:10:01;101293;;;11.9;78
61571;BME280;47463;49.884;10.010;2022-09-16T05:15:01;101289;;;11.9;78
61571;BME280;47463;49.884;10.010;2022-09-16T05:20:01;101284;;;11.9;78
61571;BME280;47463;49.884;10.010;2022-09-16T05:25:01;101274;;;11.9;78
61571;BME280;47463;49.884;10.010;2022-09-16T05:30:01;101275;;;11.9;78
61571;BME280;47463;49.884;10.010;2022-09-16T05:35:01;101275;;;11.8;78
61571;BME280;47463;49.884;10.010;2022-09-16T05:40:01;101278;;;11.8;78
61571;BME280;47463;49.884;10.010;2022-09-16T05:45:01;101279;;;11.8;78
61571;BME280;47463;49.884;10.010;2022-09-16T05:50:01;101285;;;11.9;77
61571;BME280;47463;49.884;10.010;2022-09-16T05:55:01;101290;;;11.9;77
61571;BME280;47463;49.884;10.010;2022-09-16T06:00:01;101304;;;11.9;77
61571;BME280;47463;49.884;10.010;2022-09-16T06:05:01;101306;;;11.9;77
61571;BME280;47463;49.884;10.010;2022-09-16T06:10:01;101309;;;11.9;77
61571;BME280;47463;49.884;10.010;2022-09-16T06:15:01;101307;;;12;76
61571;BME280;47463;49.884;10.010;2022-09-16T06:20:01;101303;;;12;76
61571;BME280;47463;49.884;10.010;2022-09-16T06:25:01;101304;;;12.1;76
61571;BME280;47463;49.884;10.010;2022-09-16T06:30:01;101296;;;12.1;76
61571;BME280;47463;49.884;10.010;2022-09-16T06:35:01;101300;;;12.1;75
61571;BME280;47463;49.884;10.010;2022-09-16T06:40:01;101311;;;12;75
61571;BME280;47463;49.884;10.010;2022-09-16T06:45:01;101315;;;12.2;75
61571;BME280;47463;49.884;10.010;2022-09-16T06:50:01;101320;;;12.6;74
61571;BME280;47463;49.884;10.010;2022-09-16T06:55:01;101313;;;12.8;73
61571;BME280;47463;49.884;10.010;2022-09-16T07:00:01;101301;;;12.9;72
61571;BME280;47463;49.884;10.010;2022-09-16T07:05:01;101294;;;13.3;72
61571;BME280;47463;49.884;10.010;2022-09-16T07:10:01;101293;;;13.7;71
61571;BME280;47463;49.884;10.010;2022-09-16T07:15:01;101274;;;13.5;70
61571;BME280;47463;49.884;10.010;2022-09-16T07:20:01;101248;;;13.7;70
61571;BME280;47463;49.884;10.010;2022-09-16T07:25:01;101257;;;13.7;69
61571;BME280;47463;49.884;10.010;2022-09-16T07:30:01;101238;;;14;69
61571;BME280;47463;49.884;10.010;2022-09-16T07:35:01;101223;;;13.8;68
61571;BME280;47463;49.884;10.010;2022-09-16T07:40:01;101234;;;13.7;68
61571;BME280;47463;49.884;10.010;2022-09-16T07:45:01;101211;;;14;68
61571;BME280;47463;49.884;10.010;2022-09-16T07:50:01;101211;;;14.3;67
61571;BME280;47463;49.884;10.010;2022-09-16T07:55:01;101206;;;14;67
61571;BME280;47463;49.884;10.010;2022-09-16T08:00:01;101210;;;14;67
61571;BME280;47463;49.884;10.010;2022-09-16T08:05:01;101206;;;14.2;68
61571;BME280;47463;49.884;10.010;2022-09-16T08:10:01;101215;;;14.2;67
61571;BME280;47463;49.884;10.010;2022-09-16T08:15:01;101204;;;14.4;67
61571;BME280;47463;49.884;10.010;2022-09-16T08:20:01;101210;;;14.9;67
61571;BME280;47463;49.884;10.010;2022-09-16T08:25:01;101195;;;14.5;66
61571;BME280;47463;49.884;10.010;2022-09-16T08:30:01;101206;;;14.4;66
61571;BME280;47463;49.884;10.010;2022-09-16T08:35:01;101180;;;14.5;65
61571;BME280;47463;49.884;10.010;2022-09-16T08:40:01;101200;;;14.4;65
61571;BME280;47463;49.884;10.010;2022-09-16T08:45:05;101207;;;14.2;65
61571;BME280;47463;49.884;10.010;2022-09-16T08:50:03;101218;;;14.3;66
61571;BME280;47463;49.884;10.010;2022-09-16T08:55:01;101229;;;14.3;66
61571;BME280;47463;49.884;10.010;2022-09-16T09:00:02;101240;;;14.4;67
61571;BME280;47463;49.884;10.010;2022-09-16T09:05:01;101238;;;14.4;67
61571;BME280;47463;49.884;10.010;2022-09-16T09:10:02;101234;;;14.4;67
61571;BME280;47463;49.884;10.010;2022-09-16T09:15:35;101244;;;14.5;67
61571;BME280;47463;49.884;10.010;2022-09-16T09:20:02;101232;;;14.4;66
61571;BME280;47463;49.884;10.010;2022-09-16T09:25:07;101235;;;14.1;66
61571;BME280;47463;49.884;10.010;2022-09-16T09:30:02;101242;;;14.1;67
61571;BME280;47463;49.884;10.010;2022-09-16T09:35:05;101232;;;14.1;67
61571;BME280;47463;49.884;10.010;2022-09-16T09:40:02;101242;;;14;67
61571;BME280;47463;49.884;10.010;2022-09-16T09:45:01;101237;;;14.1;68
61571;BME280;47463;49.884;10.010;2022-09-16T09:50:02;101236;;;14.1;67
61571;BME280;47463;49.884;10.010;2022-09-16T09:55:07;101244;;;14.2;67
61571;BME280;47463;49.884;10.010;2022-09-16T10:00:03;101239;;;14.1;67
61571;BME280;47463;49.884;10.010;2022-09-16T10:05:01;101237;;;14.1;67
61571;BME280;47463;49.884;10.010;2022-09-16T10:10:03;101230;;;14.2;67
61571;BME280;47463;49.884;10.010;2022-09-16T10:15:01;101229;;;14.2;67
61571;BME280;47463;49.884;10.010;2022-09-16T10:20:02;101232;;;14.3;66
61571;BME280;47463;49.884;10.010;2022-09-16T10:25:02;101231;;;14.5;67
61571;BME280;47463;49.884;10.010;2022-09-16T10:30:01;101237;;;14.5;67
61571;BME280;47463;49.884;10.010;2022-09-16T10:35:04;101241;;;15.2;66
61571;BME280;47463;49.884;10.010;2022-09-16T10:40:01;101239;;;15.2;66
61571;BME280;47463;49.884;10.010;2022-09-16T10:45:02;101220;;;15.5;64
61571;BME280;47463;49.884;10.010;2022-09-16T10:50:01;101213;;;15.4;63
61571;BME280;47463;49.884;10.010;2022-09-16T10:55:09;101210;;;15.6;63
61571;BME280;47463;49.884;10.010;2022-09-16T11:00:03;101199;;;15.6;62
61571;BME280;47463;49.884;10.010;2022-09-16T11:05:03;101204;;;15.8;63
61571;BME280;47463;49.884;10.010;2022-09-16T11:10:04;101200;;;15.8;63
61571;BME280;47463;49.884;10.010;2022-09-16T11:15:02;101209;;;15.8;62
61571;BME280;47463;49.884;10.010;2022-09-16T11:20:05;101226;;;16;62
61571;BME280;47463;49.884;10.010;2022-09-16T11:25:20;101150;;;16.4;62
61571;BME280;47463;49.884;10.010;2022-09-16T11:30:02;101167;;;16.4;55
61571;BME280;47463;49.884;10.010;2022-09-16T11:35:06;101168;;;16.5;55
61571;BME280;47463;49.884;10.010;2022-09-16T11:40:05;101137;;;16.2;52
61571;BME280;47463;49.884;10.010;2022-09-16T11:45:04;101166;;;15.8;54
61571;BME280;47463;49.884;10.010;2022-09-16T11:50:03;101157;;;16.3;55
61571;BME280;47463;49.884;10.010;2022-09-16T11:55:13;101157;;;16.5;55
61571;BME280;47463;49.884;10.010;2022-09-16T12:00:02;101154;;;16.7;55
61571;BME280;47463;49.884;10.010;2022-09-16T12:05:01;101172;;;16.7;55
61571;BME280;47463;49.884;10.010;2022-09-16T12:10:03;101165;;;17.3;57
61571;BME280;47463;49.884;10.010;2022-09-16T12:15:02;101180;;;16.8;56
61571;BME280;47463;49.884;10.010;2022-09-16T12:20:02;101170;;;16.8;57
61571;BME280;47463;49.884;10.010;2022-09-16T12:25:01;101193;;;17;57
61571;BME280;47463;49.884;10.010;2022-09-16T12:30:03;101195;;;15.6;61
61571;BME280;47463;49.884;10.010;2022-09-16T12:35:01;101205;;;14.8;64
61571;BME280;47463;49.884;10.010;2022-09-16T12:40:01;101216;;;14.5;65
61571;BME280;47463;49.884;10.010;2022-09-16T12:45:04;101206;;;14.3;65
61571;BME280;47463;49.884;10.010;2022-09-16T12:50:05;101196;;;14.2;65
61571;BME280;47463;49.884;10.010;2022-09-16T12:55:05;101184;;;14.6;65
61571;BME280;47463;49.884;10.010;2022-09-16T13:00:03;101165;;;15.2;63
61571;BME280;47463;49.884;10.010;2022-09-16T13:05:02;101170;;;15.7;61
61571;BME280;47463;49.884;10.010;2022-09-16T13:10:02;101169;;;15.4;61
61571;BME280;47463;49.884;10.010;2022-09-16T13:15:02;101164;;;15.4;62
61571;BME280;47463;49.884;10.010;2022-09-16T13:20:02;101173;;;15.6;62
61571;BME280;47463;49.884;10.010;2022-09-16T13:25:06;101171;;;15.9;61
61571;BME280;47463;49.884;10.010;2022-09-16T13:30:09;101157;;;16.2;60
61571;BME280;47463;49.884;10.010;2022-09-16T13:35:01;101145;;;16.1;59
61571;BME280;47463;49.884;10.010;2022-09-16T13:40:19;101152;;;16.3;59
61571;BME280;47463;49.884;10.010;2022-09-16T13:45:01;101139;;;16.3;59
61571;BME280;47463;49.884;10.010;2022-09-16T13:50:03;101149;;;16.2;59
61571;BME280;47463;49.884;10.010;2022-09-16T13:55:01;101156;;;16.5;58
61571;BME280;47463;49.884;10.010;2022-09-16T14:00:05;101158;;;16.7;58
61571;BME280;47463;49.884;10.010;2022-09-16T14:05:04;101135;;;16.4;56
61571;BME280;47463;49.884;10.010;2022-09-16T14:10:02;101156;;;16.1;58
61571;BME280;47463;49.884;10.010;2022-09-16T14:15:01;101202;;;14.9;66
61571;BME280;47463;49.884;10.010;2022-09-16T14:20:01;101208;;;13.5;70
61571;BME280;47463;49.884;10.010;2022-09-16T14:25:01;101224;;;13.1;72
61571;BME280;47463;49.884;10.010;2022-09-16T14:30:02;101231;;;13.2;72
61571;BME280;47463;49.884;10.010;2022-09-16T14:35:01;101242;;;13.4;73
61571;BME280;47463;49.884;10.010;2022-09-16T14:40:02;101253;;;13.7;72
61571;BME280;47463;49.884;10.010;2022-09-16T14:45:01;101256;;;14.1;72
61571;BME280;47463;49.884;10.010;2022-09-16T14:50:02;101248;;;14.4;71
61571;BME280;47463;49.884;10.010;2022-09-16T14:55:01;101234;;;14.8;68
61571;BME280;47463;49.884;10.010;2022-09-16T15:00:02;101207;;;14.8;67
61571;BME280;47463;49.884;10.010;2022-09-16T15:05:02;101200;;;15.3;64
61571;BME280;47463;49.884;10.010;2022-09-16T15:10:01;101181;;;15.5;62
61571;BME280;47463;49.884;10.010;2022-09-16T15:15:02;101182;;;15.3;62
61571;BME280;47463;49.884;10.010;2022-09-16T15:20:01;101168;;;15.4;61
61571;BME280;47463;49.884;10.010;2022-09-16T15:25:01;101167;;;15.7;61
61571;BME280;47463;49.884;10.010;2022-09-16T15:30:01;101172;;;15.5;61
61571;BME280;47463;49.884;10.010;2022-09-16T15:35:02;101147;;;15.5;60
61571;BME280;47463;49.884;10.010;2022-09-16T15:40:32;101164;;;15.5;59
61571;BME280;47463;49.884;10.010;2022-09-16T15:45:01;101166;;;15.6;60
61571;BME280;47463;49.884;10.010;2022-09-16T15:50:02;101163;;;15.8;59
61571;BME280;47463;49.884;10.010;2022-09-16T15:55:01;101165;;;15.9;59
61571;BME280;47463;49.884;10.010;2022-09-16T16:00:02;101169;;;15.8;58
61571;BME280;47463;49.884;10.010;2022-09-16T16:05:04;101166;;;15.8;59
61571;BME280;47463;49.884;10.010;2022-09-16T16:10:09;101182;;;15.5;60
61571;BME280;47463;49.884;10.010;2022-09-16T16:15:01;101190;;;15.1;62
61571;BME280;47463;49.884;10.010;2022-09-16T16:20:01;101204;;;15.1;62
61571;BME280;47463;49.884;10.010;2022-09-16T16:25:01;101213;;;14.8;63
61571;BME280;47463;49.884;10.010;2022-09-16T16:30:01;101220;;;14.7;65
61571;BME280;47463;49.884;10.010;2022-09-16T16:35:01;101229;;;14.7;65
61571;BME280;47463;49.884;10.010;2022-09-16T16:40:01;101233;;;14.4;66
61571;BME280;47463;49.884;10.010;2022-09-16T16:45:01;101243;;;14.4;66
61571;BME280;47463;49.884;10.010;2022-09-16T16:50:01;101246;;;14.4;67
61571;BME280;47463;49.884;10.010;2022-09-16T16:55:01;101253;;;14.2;68
61571;BME280;47463;49.884;10.010;2022-09-16T17:00:01;101263;;;14.1;68
61571;BME280;47463;49.884;10.010;2022-09-16T17:05:01;101263;;;13.9;69
61571;BME280;47463;49.884;10.010;2022-09-16T17:10:01;101277;;;13.6;69
61571;BME280;47463;49.884;10.010;2022-09-16T17:15:01;101283;;;13.4;70
61571;BME280;47463;49.884;10.010;2022-09-16T17:20:01;101293;;;13.2;71
61571;BME280;47463;49.884;10.010;2022-09-16T17:25:01;101286;;;13.2;71
61571;BME280;47463;49.884;10.010;2022-09-16T17:30:01;101292;;;13.1;71
61571;BME280;47463;49.884;10.010;2022-09-16T17:35:01;101282;;;12.8;72
61571;BME280;47463;49.884;10.010;2022-09-16T17:40:01;101287;;;12.7;72
61571;BME280;47463;49.884;10.010;2022-09-16T17:45:01;101298;;;12.4;73
61571;BME280;47463;49.884;10.010;2022-09-16T17:50:01;101317;;;12.1;75
61571;BME280;47463;49.884;10.010;2022-09-16T17:55:01;101322;;;11.8;75
61571;BME280;47463;49.884;10.010;2022-09-16T18:00:01;101331;;;11.6;75
61571;BME280;47463;49.884;10.010;2022-09-16T18:05:01;101331;;;11.5;75
61571;BME280;47463;49.884;10.010;2022-09-16T18:10:01;101320;;;11.3;75
61571;BME280;47463;49.884;10.010;2022-09-16T18:15:01;101331;;;11.2;76
61571;BME280;47463;49.884;10.010;2022-09-16T18:20:01;101331;;;11.1;76
61571;BME280;47463;49.884;10.010;2022-09-16T18:25:01;101335;;;11;76
61571;BME280;47463;49.884;10.010;2022-09-16T18:30:01;101343;;;11;76
61571;BME280;47463;49.884;10.010;2022-09-16T18:35:01;101357;;;10.9;76
61571;BME280;47463;49.884;10.010;2022-09-16T18:40:01;101371;;;10.8;76
61571;BME280;47463;49.884;10.010;2022-09-16T18:45:01;101380;;;10.7;76
61571;BME280;47463;49.884;10.010;2022-09-16T18:50:01;101377;;;10.6;77
61571;BME280;47463;49.884;10.010;2022-09-16T18:55:01;101374;;;10.5;77
61571;BME280;47463;49.884;10.010;2022-09-16T19:00:01;101384;;;10.5;77
61571;BME280;47463;49.884;10.010;2022-09-16T19:05:01;101382;;;10.4;77
61571;BME280;47463;49.884;10.010;2022-09-16T19:10:01;101393;;;10.4;77
61571;BME280;47463;49.884;10.010;2022-09-16T19:15:01;101403;;;10.3;77
61571;BME280;47463;49.884;10.010;2022-09-16T19:20:01;101418;;;10.3;77
61571;BME280;47463;49.884;10.010;2022-09-16T19:25:01;101420;;;10.3;77
61571;BME280;47463;49.884;10.010;2022-09-16T19:30:01;101421;;;10.2;78
61571;BME280;47463;49.884;10.010;2022-09-16T19:35:01;101417;;;10.1;78
61571;BME280;47463;49.884;10.010;2022-09-16T19:40:01;101421;;;10;78
61571;BME280;47463;49.884;10.010;2022-09-16T19:45:01;101427;;;9.9;79
61571;BME280;47463;49.884;10.010;2022-09-16T19:50:01;101426;;;9.8;79
61571;BME280;47463;49.884;10.010;2022-09-16T19:55:01;101436;;;9.7;79
61571;BME280;47463;49.884;10.010;2022-09-16T20:00:01;101444;;;9.7;79
61571;BME280;47463;49.884;10.010;2022-09-16T20:05:01;101433;;;9.6;79
61571;BME280;47463;49.884;10.010;2022-09-16T20:10:01;101437;;;9.6;80
61571;BME280;47463;49.884;10.010;2022-09-16T20:15:01;101440;;;9.5;80
61571;BME280;47463;49.884;10.010;2022-09-16T20:20:01;101453;;;9.5;80
61571;BME280;47463;49.884;10.010;2022-09-16T20:25:01;101454;;;9.4;80
61571;BME280;47463;49.884;10.010;2022-09-16T20:30:01;101454;;;9.4;81
61571;BME280;47463;49.884;10.010;2022-09-16T20:35:01;101457;;;9.4;81
61571;BME280;47463;49.884;10.010;2022-09-16T20:40:01;101469;;;9.3;81
61571;BME280;47463;49.884;10.010;2022-09-16T20:45:01;101476;;;9.3;81
61571;BME280;47463;49.884;10.010;2022-09-16T20:50:01;101483;;;9.3;81
61571;BME280;47463;49.884;10.010;2022-09-16T20:55:01;101478;;;9.2;81
61571;BME280;47463;49.884;10.010;2022-09-16T21:00:01;101486;;;9.1;81
61571;BME280;47463;49.884;10.010;2022-09-16T21:05:01;101491;;;9.1;81
61571;BME280;47463;49.884;10.010;2022-09-16T21:10:01;101497;;;9.1;81
61571;BME280;47463;49.884;10.010;2022-09-16T21:15:01;101498;;;9;81
61571;BME280;47463;49.884;10.010;2022-09-16T21:20:01;101491;;;9;81
61571;BME280;47463;49.884;10.010;2022-09-16T21:25:01;101506;;;9;81
61571;BME280;47463;49.884;10.010;2022-09-16T21:30:01;101505;;;8.9;81
61571;BME280;47463;49.884;10.010;2022-09-16T21:35:01;101493;;;8.9;82
61571;BME280;47463;49.884;10.010;2022-09-16T21:40:01;101495;;;8.9;82
61571;BME280;47463;49.884;10.010;2022-09-16T21:45:01;101496;;;8.9;82
61571;BME280;47463;49.884;10.010;2022-09-16T21:50:01;101496;;;8.9;82
61571;BME280;47463;49.884;10.010;2022-09-16T21:55:01;101506;;;8.8;82
61571;BME280;47463;49.884;10.010;2022-09-16T22:00:01;101510;;;8.8;82
61571;BME280;47463;49.884;10.010;2022-09-16T22:05:01;101506;;;8.8;82
61571;BME280;47463;49.884;10.010;2022-09-16T22:10:01;101508;;;8.7;82
61571;BME280;47463;49.884;10.010;2022-09-16T22:15:01;101510;;;8.7;82
61571;BME280;47463;49.884;10.010;2022-09-16T22:20:01;101518;;;8.7;82
61571;BME280;47463;49.884;10.010;2022-09-16T22:25:01;101524;;;8.7;82
61571;BME280;47463;49.884;10.010;2022-09-16T22:30:01;101522;;;8.5;82
61571;BME280;47463;49.884;10.010;2022-09-16T22:35:01;101506;;;8.5;82
61571;BME280;47463;49.884;10.010;2022-09-16T22:40:01;101502;;;8.4;82
61571;BME280;47463;49.884;10.010;2022-09-16T22:45:01;101501;;;8.5;82
61571;BME280;47463;49.884;10.010;2022-09-16T22:50:01;101503;;;8.5;82
61571;BME280;47463;49.884;10.010;2022-09-16T22:55:01;101504;;;8.5;82
61571;BME280;47463;49.884;10.010;2022-09-16T23:00:01;101503;;;8.5;82
61571;BME280;47463;49.884;10.010;2022-09-16T23:05:01;101499;;;8.4;82
61571;BME280;47463;49.884;10.010;2022-09-16T23:10:01;101500;;;8.4;82
61571;BME280;47463;49.884;10.010;2022-09-16T23:15:01;101501;;;8.4;82
61571;BME280;47463;49.884;10.010;2022-09-16T23:20:01;101505;;;8.4;82
61571;BME280;47463;49.884;10.010;2022-09-16T23:25:01;101502;;;8.4;82
61571;BME280;47463;49.884;10.010;2022-09-16T23:30:01;101505;;;8.3;82
61571;BME280;47463;49.884;10.010;2022-09-16T23:35:01;101495;;;8.3;82
61571;BME280;47463;49.884;10.010;2022-09-16T23:40:01;101493;;;8.3;82
61571;BME280;47463;49.884;10.010;2022-09-16T23:45:01;101490;;;8.3;82
61571;BME280;47463;49.884;10.010;2022-09-16T23:50:01;101482;;;8.3;82
61571;BME280;47463;49.884;10.010;2022-09-16T23:55:01;101488;;;8.2;82
